This is the latest recevied packets stored in our database for station/object ELLX. If no packets are shown the sender has not sent any packets the latest 24 hours.

If you compare the raw packets with similar data from other websites it may differ (especially the path), the reason is that we are not collecting packets from the same APRS-IS servers. Each APRS-IS server performes duplicate filtering, and which packet that is considered to be a duplicate may differ depending on which APRS-IS server you receive your data from.

1594339573: DK6PX>APRS,TCPIP*,qAC,T2CZECH:;ELLX *201218z4938.07N/00613.27E^ ELLX 092350Z AUTO 21006KT 9999 NCD 20/13 Q1012 NOSIG

1594343172: DK6PX>APRS,TCPIP*,qAC,T2RADOM:;ELLX *201218z4938.07N/00613.27E^ ELLX 100050Z AUTO 23006KT 9999 NCD 20/13 Q1011 NOSIG

1594346772: DK6PX>APRS,TCPIP*,qAC,T2STRAS:;ELLX *201218z4938.07N/00613.27E^ ELLX 100150Z AUTO 24007KT 9999 NCD 19/13 Q1011 NOSIG

1594350372: DK6PX>APRS,TCPIP*,qAC,T2POLC:;ELLX *201218z4938.07N/00613.27E^ ELLX 100250Z 28007KT CAVOK 18/13 Q1011 NOSIG

1594353973: DK6PX>APRS,TCPIP*,qAC,T2NORWAY:;ELLX *201218z4938.07N/00613.27E^ ELLX 100350Z 29009KT CAVOK 17/13 Q1012 NOSIG

1594357573: DK6PX>APRS,TCPIP*,qAC,T2CSNGRAD:;ELLX *201218z4938.07N/00613.27E^ ELLX 100450Z 26007KT CAVOK 16/13 Q1012 NOSIG

1594361173: DK6PX>APRS,TCPIP*,qAC,T2CZECH:;ELLX *201218z4938.07N/00613.27E^ ELLX 100550Z 24011KT 9999 FEW015 SCT038 17/13 Q1012 NOSIG

1594364776: DK6PX>APRS,TCPIP*,qAC,T2FFL:;ELLX *201218z4938.07N/00613.27E^ ELLX 100650Z 26012KT 220V280 9999 FEW012 BKN015 16/13 Q1013 NOSIG

1594368375: DK6PX>APRS,TCPIP*,qAC,T2SP:;ELLX *201218z4938.07N/00613.27E^ ELLX 100750Z 25012KT 220V280 9999 SCT013 BKN017 17/13 Q1013 NOSIG

1594371976: DK6PX>APRS,TCPIP*,qAC,T2NORWAY:;ELLX *201218z4938.07N/00613.27E^ ELLX 100850Z 26011KT 9999 FEW010 BKN015 BKN030 17/13 Q1014 NOSIG

1594375572: DK6PX>APRS,TCPIP*,qAC,T2UKRAINE:;ELLX *201218z4938.07N/00613.27E^ ELLX 100950Z 27009KT 240V310 9999 SCT012 BKN035 16/14 Q1014 NOSIG

1594379240: DK6PX>APRS,TCPIP*,qAC,T2POLC:;ELLX *201218z4938.07N/00613.27E^ ELLX 101050Z 26013KT 9999 SCT018 BKN022 18/13 Q1015 NOSIG

1594382774: DK6PX>APRS,TCPIP*,qAC,T2CZECH:;ELLX *201218z4938.07N/00613.27E^ ELLX 101150Z 25013KT 9999 SCT024 BKN030 BKN040 19/12 Q1015 NOSIG

1594386372: DK6PX>APRS,TCPIP*,qAC,T2GREECE:;ELLX *201218z4938.07N/00613.27E^ ELLX 101250Z 30012KT 260V340 9999 SCT027 BKN035 18/12 Q1016 NOSIG

1594389972: DK6PX>APRS,TCPIP*,qAC,T2FFL:;ELLX *201218z4938.07N/00613.27E^ ELLX 101350Z 27008KT 230V310 9999 FEW035 SCT042 18/12 Q1016 NOSIG

1594393572: DK6PX>APRS,TCPIP*,qAC,T2STRAS:;ELLX *201218z4938.07N/00613.27E^ ELLX 101450Z 29008KT 250V310 9999 FEW032 BKN042 19/12 Q1016 NOSIG

1594397174: DK6PX>APRS,TCPIP*,qAC,T2GREECE:;ELLX *201218z4938.07N/00613.27E^ ELLX 101550Z 25004KT 180V280 9999 FEW035 20/11 Q1016 TEMPO SHRA SCT030TCU

1594400773: DK6PX>APRS,TCPIP*,qAC,T2FEJER:;ELLX *201218z4938.07N/00613.27E^ ELLX 101650Z 34014KT 9999 FEW033 SCT048 18/12 Q1017 NOSIG

1594404373: DK6PX>APRS,TCPIP*,qAC,T2FRA:;ELLX *201218z4938.07N/00613.27E^ ELLX 101750Z 33009KT 9999 FEW033 SCT060 18/12 Q1017 NOSIG

1594407974: DK6PX>APRS,TCPIP*,qAC,T2CZECH:;ELLX *201218z4938.07N/00613.27E^ ELLX 101850Z 34007KT 320V020 CAVOK 16/12 Q1018 NOSIG

1594411573: DK6PX>APRS,TCPIP*,qAC,T2GB:;ELLX *201218z4938.07N/00613.27E^ ELLX 101950Z 34005KT 9999 FEW035 15/12 Q1018 NOSIG

1594415172: DK6PX>APRS,TCPIP*,qAC,T2UKRAINE:;ELLX *201218z4938.07N/00613.27E^ ELLX 102050Z 35008KT 9999 FEW041 14/11 Q1019 NOSIG

1594418775: DK6PX>APRS,TCPIP*,qAC,T2FRA:;ELLX *201218z4938.07N/00613.27E^ ELLX 102150Z 35007KT CAVOK 14/10 Q1020 NOSIG

1594422374: DK6PX>APRS,TCPIP*,qAC,T2SP:;ELLX *201218z4938.07N/00613.27E^ ELLX 102250Z 34008KT CAVOK 14/10 Q1020 NOSIG

Initial position
Current position
Ruler